Time;durP1;ratioP1;P1;durP2;ratioP2;P2;SDS_P1;SDS_P2;PMS_P1;PMS_P2;Temp;Humidity;BMP_temperature;BMP_pressure;BME280_temperature;BME280_humidity;BME280_pressure;Samples;Min_cycle;Max_cycle;Signal;HPM_P1;HPM_P2
2022/08/18 00:01:44;;;;;;;62.33;48.13;;;18.70;99.90;;;;;;5016000;28;20191;-66
2022/08/18 00:04:10;;;;;;;61.50;45.22;;;18.70;99.90;;;;;;5016079;28;20179;-66
2022/08/18 00:06:36;;;;;;;52.30;42.05;;;18.50;99.90;;;;;;5016608;28;20541;-66
2022/08/18 00:09:05;;;;;;;54.65;44.22;;;18.50;99.90;;;;;;5016857;28;20240;-66
2022/08/18 00:11:34;;;;;;;62.40;48.58;;;18.40;99.90;;;;;;4999068;28;20203;-66
2022/08/18 00:14:00;;;;;;;57.13;42.83;;;18.50;99.90;;;;;;5016538;28;20270;-66
2022/08/18 00:16:26;;;;;;;56.08;45.58;;;18.40;99.90;;;;;;5015730;28;20673;-66
2022/08/18 00:18:52;;;;;;;62.17;49.40;;;18.40;99.90;;;;;;5015941;28;20541;-66
2022/08/18 00:21:18;;;;;;;51.20;41.55;;;18.30;99.90;;;;;;5015799;28;20195;-66
2022/08/18 00:23:44;;;;;;;56.97;44.95;;;18.30;99.90;;;;;;4998047;28;20256;-66
2022/08/18 00:26:10;;;;;;;59.97;46.90;;;18.20;99.90;;;;;;5015538;28;20621;-66
2022/08/18 00:28:36;;;;;;;59.53;46.45;;;18.10;99.90;;;;;;5016067;28;20172;-66
2022/08/18 00:31:04;;;;;;;57.78;45.63;;;18.00;99.90;;;;;;5015011;28;20262;-66
2022/08/18 00:33:30;;;;;;;52.40;42.40;;;17.90;99.90;;;;;;5015469;28;20671;-66
2022/08/18 00:35:56;;;;;;;51.88;42.30;;;17.90;99.90;;;;;;4997722;28;20199;-66
2022/08/18 00:38:22;;;;;;;53.35;42.03;;;17.90;99.90;;;;;;5015321;28;20199;-66
2022/08/18 00:40:53;;;;;;;51.20;41.65;;;17.90;99.90;;;;;;4997464;28;20207;-66
2022/08/18 00:43:29;;;;;;;51.70;42.45;;;17.90;99.90;;;;;;5015549;28;20164;-66
2022/08/18 00:45:55;;;;;;;51.38;42.38;;;17.90;99.90;;;;;;5015040;28;20217;-66
2022/08/18 00:48:21;;;;;;;52.30;41.83;;;17.90;99.90;;;;;;5015214;28;20172;-66
2022/08/18 00:50:56;;;;;;;51.22;40.20;;;17.80;99.90;;;;;;5015282;28;20214;-66
2022/08/18 00:53:39;;;;;;;50.58;40.72;;;17.80;99.90;;;;;;4997371;28;20180;-66
2022/08/18 00:56:13;;;;;;;53.55;41.45;;;17.80;99.90;;;;;;5014845;28;20222;-66
2022/08/18 00:58:47;;;;;;;53.17;41.33;;;17.80;99.90;;;;;;4997239;28;20229;-66
2022/08/18 01:01:15;;;;;;;52.90;41.97;;;17.80;99.90;;;;;;4997106;28;20210;-66
2022/08/18 01:03:44;;;;;;;52.63;41.03;;;17.80;99.90;;;;;;5014881;28;20172;-66
2022/08/18 01:06:27;;;;;;;52.25;41.40;;;17.80;99.90;;;;;;5014669;28;20251;-66
2022/08/18 01:08:53;;;;;;;50.72;39.97;;;17.80;99.90;;;;;;5014773;28;20165;-66
2022/08/18 01:11:19;;;;;;;52.67;41.97;;;17.80;99.90;;;;;;5013947;28;20196;-66
2022/08/18 01:13:45;;;;;;;53.97;42.00;;;17.70;99.90;;;;;;5014744;28;20724;-66
2022/08/18 01:21:52;;;;;;;53.55;41.42;;;17.60;99.90;;;;;;5014771;28;20206;-66
2022/08/18 01:25:58;;;;;;;53.25;41.15;;;17.60;99.90;;;;;;5014816;28;20210;-66
2022/08/18 01:27:17;;;;;;;54.42;40.45;;;17.60;99.90;;;;;;5014322;28;20314;-66
2022/08/18 01:29:47;;;;;;;54.30;42.03;;;17.60;99.90;;;;;;5014205;28;20609;-66
2022/08/18 01:32:19;;;;;;;49.60;39.63;;;17.50;99.90;;;;;;5014700;28;20167;-66
2022/08/18 01:34:47;;;;;;;53.03;41.42;;;17.40;99.90;;;;;;5014551;28;20159;-66
2022/08/18 01:37:19;;;;;;;47.78;39.42;;;17.40;99.90;;;;;;5014519;28;20195;-66
2022/08/18 01:39:46;;;;;;;42.00;35.08;;;17.40;99.90;;;;;;4996678;28;20179;-66
2022/08/18 01:42:15;;;;;;;42.20;34.42;;;17.40;99.90;;;;;;4996490;28;20179;-66
2022/08/18 01:44:43;;;;;;;40.55;33.72;;;17.40;99.90;;;;;;4996543;28;20230;-66
2022/08/18 01:47:10;;;;;;;46.42;36.80;;;17.30;99.90;;;;;;5014591;28;20190;-67
2022/08/18 01:49:37;;;;;;;44.25;35.72;;;17.30;99.90;;;;;;5013979;28;20182;-67
2022/08/18 01:52:05;;;;;;;45.83;36.78;;;17.30;99.90;;;;;;5013879;28;20202;-67
2022/08/18 01:54:32;;;;;;;49.25;38.33;;;17.30;99.90;;;;;;5014076;28;20180;-67
2022/08/18 01:56:58;;;;;;;51.63;39.28;;;17.30;99.90;;;;;;5013992;28;20211;-67
2022/08/18 01:59:24;;;;;;;51.28;40.72;;;17.30;99.90;;;;;;5014198;28;20172;-67
2022/08/18 02:01:54;;;;;;;51.50;41.50;;;17.30;99.90;;;;;;5013630;28;20715;-67
2022/08/18 02:04:27;;;;;;;51.25;41.03;;;17.30;99.90;;;;;;5013752;28;20196;-67
2022/08/18 02:06:54;;;;;;;53.50;41.30;;;17.30;99.90;;;;;;5013994;28;20184;-67
2022/08/18 02:09:21;;;;;;;57.50;44.05;;;17.30;99.90;;;;;;5013732;28;20199;-67
2022/08/18 02:11:47;;;;;;;58.10;45.03;;;17.20;99.90;;;;;;5013660;28;20196;-67
2022/08/18 02:14:13;;;;;;;61.00;45.38;;;17.20;99.90;;;;;;5013796;28;20179;-67
2022/08/18 02:16:38;;;;;;;64.97;46.55;;;17.20;99.90;;;;;;5013376;28;20565;-67
2022/08/18 02:19:04;;;;;;;67.47;46.72;;;17.10;99.90;;;;;;5013832;28;20548;-66
2022/08/18 02:21:30;;;;;;;60.92;45.70;;;17.00;99.90;;;;;;5014180;28;20195;-67
2022/08/18 02:23:56;;;;;;;58.92;45.75;;;17.00;99.90;;;;;;5017988;28;20202;-67
2022/08/18 02:26:22;;;;;;;61.97;47.63;;;16.90;99.90;;;;;;5017791;28;20644;-67
2022/08/18 02:28:48;;;;;;;63.45;46.58;;;16.90;99.90;;;;;;5017919;28;20534;-67
2022/08/18 02:31:17;;;;;;;60.25;46.50;;;16.80;99.90;;;;;;5017431;28;20187;-67
2022/08/18 02:33:44;;;;;;;64.00;46.42;;;16.70;99.90;;;;;;5017719;28;20179;-67
2022/08/18 02:36:11;;;;;;;62.38;45.45;;;16.60;99.90;;;;;;5017762;28;20176;-67
2022/08/18 02:38:37;;;;;;;62.50;46.58;;;16.60;99.90;;;;;;5017414;28;20656;-67
2022/08/18 02:41:05;;;;;;;62.53;47.65;;;16.60;99.90;;;;;;4999988;28;20641;-67
2022/08/18 02:43:31;;;;;;;60.40;45.25;;;16.50;99.90;;;;;;5017786;28;20202;-67
2022/08/18 02:45:57;;;;;;;56.08;42.45;;;16.50;99.90;;;;;;5017059;28;20638;-67
2022/08/18 02:48:44;;;;;;;51.35;39.47;;;16.40;99.90;;;;;;5017577;28;20180;-67
2022/08/18 02:51:12;;;;;;;47.50;36.97;;;16.40;99.90;;;;;;5017435;28;20215;-67
2022/08/18 02:53:42;;;;;;;44.83;35.88;;;16.30;99.90;;;;;;5017896;28;20294;-67
2022/08/18 02:56:26;;;;;;;46.05;35.83;;;16.30;99.90;;;;;;5017411;28;20187;-67
2022/08/18 02:59:04;;;;;;;44.60;36.20;;;16.40;99.90;;;;;;5017730;28;20164;-67
2022/08/18 03:01:32;;;;;;;42.08;34.42;;;16.40;99.90;;;;;;5017095;28;20195;-67
2022/08/18 03:04:00;;;;;;;43.05;34.70;;;16.40;99.90;;;;;;5017260;28;20191;-67
2022/08/18 03:06:27;;;;;;;38.72;32.33;;;16.40;99.90;;;;;;4999434;28;20547;-67
2022/08/18 03:08:54;;;;;;;40.67;32.63;;;16.50;99.90;;;;;;5016785;28;20172;-67
2022/08/18 03:11:26;;;;;;;39.95;31.75;;;16.50;99.90;;;;;;5017132;28;20638;-67
2022/08/18 03:13:53;;;;;;;39.83;32.80;;;16.40;99.90;;;;;;5016874;28;20644;-67
2022/08/18 03:16:20;;;;;;;39.17;31.92;;;16.30;99.90;;;;;;5016644;28;20171;-67
2022/08/18 03:18:46;;;;;;;40.97;32.05;;;16.30;99.90;;;;;;5017019;28;20176;-67
2022/08/18 03:21:20;;;;;;;44.10;35.30;;;16.30;99.90;;;;;;5016753;28;20192;-67
2022/08/18 03:23:47;;;;;;;43.40;34.20;;;16.30;99.90;;;;;;4999094;28;20598;-67
2022/08/18 03:26:18;;;;;;;40.55;33.10;;;16.30;99.90;;;;;;5016639;28;20243;-67
2022/08/18 03:28:48;;;;;;;43.63;34.45;;;16.30;99.90;;;;;;5016713;28;20171;-67
2022/08/18 03:31:15;;;;;;;42.58;34.03;;;16.30;99.90;;;;;;4998819;28;20204;-67
2022/08/18 03:33:44;;;;;;;46.28;37.78;;;16.30;99.90;;;;;;5015918;28;20165;-67
2022/08/18 03:36:16;;;;;;;47.00;36.85;;;16.30;99.90;;;;;;5016342;28;20179;-66
2022/08/18 03:38:43;;;;;;;49.85;38.58;;;16.20;99.90;;;;;;5016517;28;20282;-66
2022/08/18 03:41:11;;;;;;;49.80;36.85;;;16.20;99.90;;;;;;4998990;28;20695;-67
2022/08/18 03:43:37;;;;;;;49.75;37.55;;;16.20;99.90;;;;;;5016273;28;20538;-66
2022/08/18 03:46:06;;;;;;;46.05;36.97;;;16.20;99.90;;;;;;5016176;28;20170;-66
2022/08/18 03:48:32;;;;;;;53.08;40.78;;;16.20;99.90;;;;;;5016688;28;20211;-66
2022/08/18 03:51:14;;;;;;;52.08;39.15;;;16.20;99.90;;;;;;5016038;28;20262;-67
2022/08/18 03:53:41;;;;;;;54.42;39.78;;;16.20;99.90;;;;;;4998345;28;20202;-66
2022/08/18 03:56:15;;;;;;;49.20;39.55;;;16.20;99.90;;;;;;5015976;28;20652;-66
2022/08/18 03:58:46;;;;;;;56.50;41.83;;;16.20;99.90;;;;;;5016172;28;20199;-67
2022/08/18 04:01:17;;;;;;;58.55;42.35;;;16.20;99.90;;;;;;4998166;28;20196;-67
2022/08/18 04:03:46;;;;;;;60.70;45.13;;;16.20;99.90;;;;;;4998260;28;20618;-66
2022/08/18 04:06:21;;;;;;;60.03;44.33;;;16.20;99.90;;;;;;4998256;28;20210;-66
2022/08/18 04:08:53;;;;;;;58.38;43.35;;;16.20;99.90;;;;;;5016143;28;20511;-67
2022/08/18 04:11:20;;;;;;;55.08;41.03;;;16.20;99.90;;;;;;5015729;28;20196;-67
2022/08/18 04:13:46;;;;;;;52.42;41.17;;;16.30;99.90;;;;;;5015653;28;20175;-67
2022/08/18 04:16:12;;;;;;;57.85;42.78;;;16.40;99.90;;;;;;5015629;28;20164;-67
2022/08/18 04:18:38;;;;;;;55.85;41.65;;;16.40;99.90;;;;;;5015642;28;20219;-67
2022/08/18 04:21:07;;;;;;;58.80;43.13;;;16.50;99.90;;;;;;5015556;28;20188;-67
2022/08/18 04:23:34;;;;;;;57.88;44.13;;;16.40;99.90;;;;;;4997981;28;20179;-67
2022/08/18 04:26:00;;;;;;;53.95;40.97;;;16.40;99.90;;;;;;5015869;28;20176;-67
2022/08/18 04:28:27;;;;;;;55.58;41.90;;;16.40;99.90;;;;;;5030726;28;20665;-67
2022/08/18 04:30:53;;;;;;;58.38;43.20;;;16.40;99.90;;;;;;4997486;28;20203;-67
2022/08/18 04:33:20;;;;;;;52.33;40.85;;;16.50;99.90;;;;;;5015505;28;20263;-67
2022/08/18 04:35:46;;;;;;;53.85;40.58;;;16.60;99.90;;;;;;5015313;28;20180;-67
2022/08/18 04:38:12;;;;;;;49.13;38.50;;;16.60;99.90;;;;;;5014920;28;20203;-67
2022/08/18 04:40:40;;;;;;;45.80;36.00;;;16.60;99.90;;;;;;5014945;28;20191;-67
2022/08/18 04:43:13;;;;;;;45.10;35.97;;;16.50;99.90;;;;;;4997304;28;20267;-67
2022/08/18 04:45:46;;;;;;;43.55;35.53;;;16.60;99.90;;;;;;5013716;28;20160;-67
2022/08/18 04:48:12;;;;;;;48.38;37.80;;;16.50;99.90;;;;;;4997311;28;20176;-67
2022/08/18 04:50:38;;;;;;;49.08;37.22;;;16.50;99.90;;;;;;5014819;28;20196;-67
2022/08/18 04:55:51;;;;;;;44.15;35.15;;;16.60;99.90;;;;;;5014421;28;20207;-67
2022/08/18 04:58:20;;;;;;;46.95;35.78;;;16.70;99.90;;;;;;5014590;28;20315;-67
2022/08/18 05:00:54;;;;;;;46.88;36.65;;;16.70;99.90;;;;;;5014086;28;20282;-67
2022/08/18 05:03:25;;;;;;;45.17;35.10;;;16.80;99.90;;;;;;4996919;28;20195;-67
2022/08/18 05:05:53;;;;;;;44.03;35.08;;;16.80;99.90;;;;;;5015025;28;20152;-67
2022/08/18 05:08:21;;;;;;;46.33;35.80;;;16.90;99.90;;;;;;5014286;28;20226;-67
2022/08/18 05:10:51;;;;;;;50.05;37.42;;;17.00;99.90;;;;;;5014274;28;20192;-67
2022/08/18 05:13:17;;;;;;;47.38;38.13;;;17.00;99.90;;;;;;5014342;28;20171;-68
2022/08/18 05:15:43;;;;;;;49.28;37.10;;;17.10;99.90;;;;;;5014094;28;20259;-69
2022/08/18 05:18:09;;;;;;;46.30;37.90;;;17.20;99.90;;;;;;5014327;28;20648;-68
2022/08/18 05:20:40;;;;;;;49.38;37.80;;;17.20;99.90;;;;;;5014352;28;20195;-70
2022/08/18 05:23:07;;;;;;;52.25;38.22;;;17.30;99.90;;;;;;5014512;28;20199;-70
2022/08/18 05:25:33;;;;;;;49.78;38.28;;;17.30;99.90;;;;;;5014370;28;20171;-68
2022/08/18 05:27:59;;;;;;;48.50;37.78;;;17.30;99.90;;;;;;5015136;28;20194;-67
2022/08/18 05:30:25;;;;;;;53.88;38.47;;;17.40;99.90;;;;;;5014469;28;20198;-68
2022/08/18 05:32:51;;;;;;;49.17;38.22;;;17.40;99.90;;;;;;4996731;28;20231;-67
2022/08/18 05:35:25;;;;;;;52.90;38.65;;;17.50;99.90;;;;;;5014650;28;20179;-68
2022/08/18 05:38:16;;;;;;;62.63;45.25;;;17.60;99.90;;;;;;5013895;28;20207;-68
2022/08/18 05:40:44;;;;;;;60.92;41.95;;;17.60;99.90;;;;;;4996437;28;20206;-68
2022/08/18 05:43:14;;;;;;;67.43;46.42;;;17.60;99.90;;;;;;5013868;28;20176;-68
2022/08/18 05:45:41;;;;;;;65.50;45.95;;;17.60;99.90;;;;;;5013747;28;20180;-68
2022/08/18 05:48:06;;;;;;;63.83;45.90;;;17.80;99.90;;;;;;5013909;28;20191;-68
2022/08/18 05:50:36;;;;;;;66.45;46.75;;;17.80;99.90;;;;;;4996084;28;20207;-68
2022/08/18 05:53:17;;;;;;;63.58;46.83;;;17.80;99.90;;;;;;5014072;28;20171;-68
2022/08/18 05:58:45;;;;;;;76.57;51.10;;;17.80;99.90;;;;;;5013713;28;20557;-68
2022/08/18 06:01:40;;;;;;;69.30;48.22;;;17.70;99.90;;;;;;4995870;28;20226;-68
2022/08/18 06:04:29;;;;;;;68.70;48.03;;;17.80;99.90;;;;;;5013992;28;20159;-68
2022/08/18 06:06:56;;;;;;;72.95;47.67;;;17.80;99.90;;;;;;4996021;28;20191;-68
2022/08/18 06:09:36;;;;;;;67.97;47.83;;;17.80;99.90;;;;;;4996028;28;20183;-68
2022/08/18 06:12:25;;;;;;;69.60;48.08;;;17.80;99.90;;;;;;4995974;28;20206;-67
2022/08/18 06:14:54;;;;;;;71.25;47.80;;;17.80;99.90;;;;;;5014059;28;20591;-67
2022/08/18 06:17:25;;;;;;;66.70;44.65;;;17.90;99.90;;;;;;4995528;28;20277;-67
2022/08/18 06:20:14;;;;;;;65.20;46.95;;;18.00;99.90;;;;;;5013671;28;20492;-67
2022/08/18 06:23:06;;;;;;;63.65;44.30;;;18.00;99.90;;;;;;5013743;28;20691;-67
2022/08/18 06:25:56;;;;;;;68.53;47.70;;;18.10;99.90;;;;;;5013379;28;20194;-67
2022/08/18 06:28:22;;;;;;;64.95;44.38;;;18.00;99.90;;;;;;4995738;28;20175;-67
2022/08/18 06:31:08;;;;;;;73.50;47.03;;;18.10;99.90;;;;;;5013086;28;20569;-67
2022/08/18 06:33:56;;;;;;;67.30;45.90;;;18.20;99.90;;;;;;4995772;28;20176;-67
2022/08/18 06:36:27;;;;;;;75.57;49.00;;;18.20;99.90;;;;;;5013269;28;20218;-67
2022/08/18 06:39:02;;;;;;;73.55;47.72;;;18.20;99.90;;;;;;5013245;28;20183;-67
2022/08/18 06:41:47;;;;;;;72.68;46.95;;;18.20;99.90;;;;;;5013567;28;20249;-67
2022/08/18 06:44:35;;;;;;;78.40;50.10;;;18.20;99.90;;;;;;5013587;28;20243;-67
2022/08/18 06:47:19;;;;;;;80.68;49.60;;;18.20;99.90;;;;;;5028326;28;20262;-67
2022/08/18 06:50:24;;;;;;;77.70;49.35;;;18.20;99.90;;;;;;5013158;28;20156;-67
2022/08/18 06:53:00;;;;;;;84.03;48.90;;;18.30;99.90;;;;;;5013401;28;20161;-67
2022/08/18 06:55:36;;;;;;;90.97;51.58;;;18.40;99.90;;;;;;4995401;28;20191;-68
2022/08/18 06:58:16;;;;;;;91.07;50.72;;;18.40;99.90;;;;;;5013431;28;20202;-67
2022/08/18 07:00:54;;;;;;;94.95;50.47;;;18.30;99.90;;;;;;4995423;28;20287;-66
2022/08/18 07:03:23;;;;;;;93.00;49.80;;;18.20;99.90;;;;;;4995431;28;20303;-66
2022/08/18 07:06:26;;;;;;;93.72;49.40;;;18.20;99.90;;;;;;5012982;28;20172;-67
2022/08/18 07:08:55;;;;;;;84.75;48.92;;;18.20;99.90;;;;;;5013094;28;20191;-67
2022/08/18 07:11:31;;;;;;;106.47;51.65;;;18.30;99.90;;;;;;5016557;28;20652;-67
2022/08/18 07:14:20;;;;;;;98.18;49.42;;;18.30;99.90;;;;;;5016976;28;20647;-67
2022/08/18 07:16:47;;;;;;;102.22;50.28;;;18.40;99.90;;;;;;5016300;28;20206;-67
2022/08/18 07:19:19;;;;;;;100.18;52.10;;;18.50;99.90;;;;;;4998897;28;20229;-67
2022/08/18 07:21:46;;;;;;;107.43;50.85;;;18.50;99.90;;;;;;5016491;28;20258;-67
2022/08/18 07:24:27;;;;;;;106.40;51.70;;;18.50;99.90;;;;;;5016553;28;20163;-67
2022/08/18 07:27:14;;;;;;;99.50;47.72;;;18.60;99.90;;;;;;5016622;28;20164;-67
2022/08/18 07:30:09;;;;;;;95.95;47.95;;;18.60;99.90;;;;;;5017073;28;20160;-67
2022/08/18 07:33:05;;;;;;;106.03;51.45;;;18.60;99.90;;;;;;5016481;28;20173;-67
2022/08/18 07:36:05;;;;;;;108.03;51.63;;;18.60;99.90;;;;;;5013526;28;20775;-69
2022/08/18 07:38:47;;;;;;;103.10;48.90;;;18.60;99.90;;;;;;4975266;28;20228;-67
2022/08/18 07:41:25;;;;;;;99.57;49.15;;;18.70;99.90;;;;;;4996674;28;20193;-67
2022/08/18 07:44:20;;;;;;;98.25;48.45;;;18.70;99.90;;;;;;4979202;28;20187;-67
2022/08/18 07:46:59;;;;;;;93.65;47.03;;;18.80;99.90;;;;;;4996403;28;20177;-67
2022/08/18 07:49:31;;;;;;;96.60;46.95;;;18.80;99.90;;;;;;4978987;28;20180;-67
2022/08/18 07:52:14;;;;;;;100.80;47.22;;;18.80;99.90;;;;;;4996957;28;20200;-66
2022/08/18 07:55:07;;;;;;;96.50;47.17;;;18.70;99.90;;;;;;4996603;28;20161;-67
2022/08/18 07:57:44;;;;;;;97.72;47.35;;;18.70;99.90;;;;;;4995907;28;20223;-67
2022/08/18 08:00:22;;;;;;;94.13;45.45;;;18.70;99.90;;;;;;4996071;28;20627;-66
2022/08/18 08:02:59;;;;;;;90.55;43.42;;;18.70;99.90;;;;;;4995807;28;20167;-67
2022/08/18 08:05:39;;;;;;;91.47;42.17;;;18.80;99.90;;;;;;4978569;28;20187;-67
2022/08/18 08:08:34;;;;;;;81.15;41.25;;;18.80;99.90;;;;;;5012450;28;20176;-67
2022/08/18 08:11:10;;;;;;;77.75;39.55;;;18.90;99.90;;;;;;5015601;28;20200;-65
2022/08/18 08:13:56;;;;;;;77.90;40.85;;;19.00;99.90;;;;;;5015695;28;20609;-65
2022/08/18 08:16:43;;;;;;;82.00;41.70;;;19.10;99.90;;;;;;4997604;28;20183;-65
2022/08/18 08:19:27;;;;;;;82.47;42.30;;;19.00;99.90;;;;;;5016177;28;20545;-65
2022/08/18 08:22:03;;;;;;;82.90;42.45;;;19.00;99.90;;;;;;5015565;28;20196;-65
2022/08/18 08:24:41;;;;;;;86.75;42.08;;;19.00;99.90;;;;;;5015659;28;20526;-65
2022/08/18 08:27:46;;;;;;;79.72;42.22;;;19.10;99.90;;;;;;5015532;28;20622;-65
2022/08/18 08:30:16;;;;;;;74.38;40.78;;;19.10;99.90;;;;;;4987207;28;20222;-65
2022/08/18 08:32:44;;;;;;;77.72;41.05;;;19.10;99.90;;;;;;5015060;28;20175;-65
2022/08/18 08:35:18;;;;;;;82.18;39.45;;;19.10;99.90;;;;;;5015119;28;20180;-65
2022/08/18 08:38:02;;;;;;;80.65;44.17;;;19.20;99.90;;;;;;5015269;28;20203;-65
2022/08/18 08:40:45;;;;;;;90.80;44.58;;;19.30;99.90;;;;;;4997471;28;20231;-65
2022/08/18 08:43:17;;;;;;;83.78;43.65;;;19.30;99.90;;;;;;4997427;28;20178;-65
2022/08/18 08:46:05;;;;;;;86.50;43.05;;;19.30;99.90;;;;;;5015542;28;20548;-65
2022/08/18 08:48:38;;;;;;;80.72;43.20;;;19.40;99.90;;;;;;5015123;28;20169;-65
2022/08/18 08:51:37;;;;;;;83.85;44.58;;;19.40;99.90;;;;;;5015000;28;20212;-65
2022/08/18 08:54:26;;;;;;;85.60;44.25;;;19.40;99.90;;;;;;5015189;28;20224;-65
2022/08/18 08:56:55;;;;;;;84.65;42.60;;;19.50;99.90;;;;;;5014713;28;20204;-65
2022/08/18 08:59:23;;;;;;;88.63;46.80;;;19.50;99.90;;;;;;5015216;28;20206;-65
2022/08/18 09:02:01;;;;;;;84.22;44.45;;;19.50;99.90;;;;;;5014311;28;20216;-65
2022/08/18 09:04:32;;;;;;;83.75;43.17;;;19.50;99.90;;;;;;5014598;28;20541;-65
2022/08/18 09:07:22;;;;;;;88.82;44.17;;;19.60;99.90;;;;;;4997530;28;20253;-65
2022/08/18 09:10:11;;;;;;;79.03;42.20;;;19.50;99.90;;;;;;5006558;28;20191;-65
2022/08/18 09:13:07;;;;;;;90.57;43.58;;;19.50;99.90;;;;;;5014969;28;20222;-65
2022/08/18 09:15:59;;;;;;;85.20;44.45;;;19.50;99.90;;;;;;5014495;28;20160;-65
2022/08/18 09:18:54;;;;;;;87.72;42.65;;;19.60;99.90;;;;;;5011494;28;20226;-65
2022/08/18 09:21:38;;;;;;;92.82;45.38;;;19.60;99.90;;;;;;5006267;28;20302;-65
2022/08/18 09:24:27;;;;;;;83.47;43.22;;;19.60;99.90;;;;;;5014750;28;20687;-65
2022/08/18 09:27:02;;;;;;;86.93;41.90;;;19.70;99.90;;;;;;5014805;28;20164;-64
2022/08/18 09:29:37;;;;;;;88.20;45.88;;;19.70;99.90;;;;;;5014200;28;20255;-65
2022/08/18 09:32:18;;;;;;;82.05;45.33;;;19.80;99.90;;;;;;5013339;28;20198;-65
2022/08/18 09:35:08;;;;;;;94.65;47.95;;;19.80;99.90;;;;;;5014129;28;20176;-65
2022/08/18 09:44:10;;;;;;;88.40;45.47;;;19.90;99.90;;;;;;5014809;28;20186;-65
2022/08/18 09:46:42;;;;;;;93.75;47.63;;;19.90;99.90;;;;;;5014285;28;20155;-65
2022/08/18 09:49:25;;;;;;;90.50;46.05;;;19.90;99.90;;;;;;5014200;28;20262;-65
2022/08/18 09:52:20;;;;;;;85.18;46.03;;;20.00;99.90;;;;;;5013780;28;20601;-65
2022/08/18 09:55:00;;;;;;;85.78;43.13;;;20.00;99.90;;;;;;4996104;28;20180;-64
2022/08/18 09:57:27;;;;;;;82.63;42.75;;;20.10;99.90;;;;;;5013705;28;20695;-65
2022/08/18 10:00:06;;;;;;;77.00;42.42;;;20.20;99.90;;;;;;5013733;28;20176;-65
2022/08/18 10:02:31;;;;;;;86.05;46.25;;;20.30;99.90;;;;;;4995924;28;20167;-65
2022/08/18 10:05:20;;;;;;;84.53;45.10;;;20.30;99.90;;;;;;4996172;28;20194;-65
2022/08/18 10:07:52;;;;;;;86.40;44.60;;;20.30;99.90;;;;;;5013832;28;20198;-65
2022/08/18 10:10:26;;;;;;;81.30;43.55;;;20.30;99.90;;;;;;5013800;28;20196;-65
2022/08/18 10:13:12;;;;;;;79.13;41.95;;;20.40;99.90;;;;;;5013583;28;20163;-65
2022/08/18 10:16:21;;;;;;;67.85;37.60;;;20.50;99.90;;;;;;5013545;28;20166;-65
2022/08/18 10:19:02;;;;;;;70.72;37.88;;;20.70;99.90;;;;;;5013671;28;20246;-65
2022/08/18 10:21:49;;;;;;;74.25;41.75;;;20.90;99.90;;;;;;5013382;28;20202;-65
2022/08/18 10:24:19;;;;;;;62.92;35.70;;;21.10;99.90;;;;;;5013345;28;20199;-65
2022/08/18 10:26:50;;;;;;;60.47;34.33;;;21.20;99.90;;;;;;5013422;28;20194;-65
2022/08/18 10:29:28;;;;;;;59.17;35.13;;;21.50;99.90;;;;;;5013352;28;20172;-65
2022/08/18 10:31:54;;;;;;;71.15;40.22;;;21.60;99.90;;;;;;5013231;28;20602;-65
2022/08/18 10:34:41;;;;;;;64.18;37.47;;;21.60;99.90;;;;;;5013455;28;20156;-65
2022/08/18 10:37:17;;;;;;;61.60;34.90;;;21.70;99.90;;;;;;5013203;28;20253;-65
2022/08/18 10:39:49;;;;;;;60.40;36.08;;;21.80;99.90;;;;;;5013895;28;20174;-65
2022/08/18 10:42:30;;;;;;;55.67;33.67;;;21.90;99.90;;;;;;5014158;28;20516;-65
2022/08/18 10:45:12;;;;;;;66.57;38.80;;;22.00;99.90;;;;;;5015692;28;20238;-65
2022/08/18 10:47:40;;;;;;;60.85;36.00;;;22.00;99.90;;;;;;5017249;28;20242;-65
2022/08/18 10:50:18;;;;;;;58.55;35.72;;;21.80;99.90;;;;;;4999453;28;20283;-65
2022/08/18 10:53:00;;;;;;;58.03;33.42;;;21.60;99.90;;;;;;5017416;28;20171;-64
2022/08/18 10:55:38;;;;;;;45.08;27.80;;;21.70;99.90;;;;;;4999468;28;20180;-65
2022/08/18 10:58:23;;;;;;;45.90;28.75;;;21.80;99.90;;;;;;5017605;28;20203;-64
2022/08/18 11:01:26;;;;;;;58.58;33.35;;;21.90;99.90;;;;;;5016828;28;20295;-64
2022/08/18 11:04:06;;;;;;;47.65;28.92;;;22.00;99.90;;;;;;5032041;28;20489;-64
2022/08/18 11:06:42;;;;;;;50.72;31.20;;;22.10;99.90;;;;;;4999169;28;20201;-66
2022/08/18 11:09:10;;;;;;;52.05;30.98;;;22.10;99.90;;;;;;4999164;28;20528;-65
2022/08/18 11:11:42;;;;;;;49.75;30.55;;;22.10;99.90;;;;;;5016568;28;20188;-66
2022/08/18 11:14:26;;;;;;;50.60;32.05;;;22.20;99.90;;;;;;5016939;28;20159;-65
2022/08/18 11:17:02;;;;;;;56.83;34.70;;;22.20;99.90;;;;;;5016365;28;20160;-64
2022/08/18 11:19:35;;;;;;;50.72;31.02;;;22.10;99.90;;;;;;5016773;28;20191;-63
2022/08/18 11:22:01;;;;;;;48.10;30.95;;;22.00;99.90;;;;;;5016838;28;20250;-63
2022/08/18 11:24:30;;;;;;;55.45;35.65;;;22.10;99.90;;;;;;5016471;28;20176;-63
2022/08/18 11:27:00;;;;;;;43.92;28.88;;;22.00;99.90;;;;;;5017012;28;20252;-64
2022/08/18 11:29:35;;;;;;;42.60;27.05;;;22.10;99.90;;;;;;5016445;28;20179;-64
2022/08/18 11:32:33;;;;;;;49.15;32.97;;;22.30;99.90;;;;;;4998478;28;20202;-64
2022/08/18 11:35:31;;;;;;;45.63;29.17;;;22.30;99.90;;;;;;5013303;28;20188;-64
2022/08/18 11:38:00;;;;;;;42.65;28.30;;;22.30;99.90;;;;;;4974279;28;20243;-65
2022/08/18 11:40:34;;;;;;;40.80;25.95;;;22.50;99.90;;;;;;4996487;28;20277;-64
2022/08/18 11:43:01;;;;;;;46.80;29.35;;;22.60;99.90;;;;;;4997076;28;20167;-64
2022/08/18 11:45:33;;;;;;;58.25;35.47;;;22.80;99.90;;;;;;4978961;28;20180;-63
2022/08/18 11:48:14;;;;;;;51.13;32.92;;;22.90;99.90;;;;;;4996477;28;20524;-63
2022/08/18 11:50:49;;;;;;;46.05;29.45;;;23.00;99.90;;;;;;4996534;28;20283;-63
2022/08/18 11:53:50;;;;;;;52.80;34.40;;;23.20;99.90;;;;;;4996386;28;20178;-63
2022/08/18 11:56:19;;;;;;;43.58;28.52;;;23.30;99.90;;;;;;4995606;28;20195;-63
2022/08/18 11:58:45;;;;;;;45.22;28.73;;;23.40;99.90;;;;;;4996300;28;20196;-63
2022/08/18 12:01:37;;;;;;;43.63;28.92;;;23.50;99.90;;;;;;4996134;28;20239;-64
2022/08/18 12:04:19;;;;;;;41.08;27.70;;;23.60;99.90;;;;;;4978738;28;20175;-64
2022/08/18 12:06:58;;;;;;;47.78;30.95;;;23.60;99.90;;;;;;5001644;28;20190;-64
2022/08/18 12:09:39;;;;;;;37.05;25.35;;;23.80;99.90;;;;;;5015703;28;20198;-64
2022/08/18 12:12:29;;;;;;;35.70;23.52;;;24.00;99.90;;;;;;5015519;28;20197;-64
2022/08/18 12:15:13;;;;;;;42.70;27.83;;;24.20;99.90;;;;;;5015595;28;20152;-64
2022/08/18 12:17:40;;;;;;;37.75;26.02;;;24.40;99.90;;;;;;5015457;28;20278;-64
2022/08/18 12:20:08;;;;;;;40.72;26.30;;;24.50;99.90;;;;;;5015328;28;20183;-64
2022/08/18 12:22:35;;;;;;;35.38;25.90;;;24.60;99.90;;;;;;5015930;28;20223;-64
2022/08/18 12:25:04;;;;;;;41.05;27.85;;;24.60;99.90;;;;;;4997795;28;20530;-64
2022/08/18 12:27:30;;;;;;;36.80;25.40;;;24.60;99.90;;;;;;5015547;28;20176;-64
2022/08/18 12:29:59;;;;;;;38.60;25.48;;;24.70;99.90;;;;;;5015334;28;20230;-64
2022/08/18 12:32:28;;;;;;;44.03;31.45;;;24.80;99.90;;;;;;5015131;28;20653;-64
2022/08/18 12:34:53;;;;;;;46.13;30.25;;;24.50;99.90;;;;;;5015394;28;20184;-64
2022/08/18 12:37:23;;;;;;;35.45;25.77;;;24.30;99.90;;;;;;5015184;28;20281;-64
2022/08/18 12:39:49;;;;;;;36.60;25.38;;;24.30;99.90;;;;;;5015576;28;20164;-65
2022/08/18 12:42:15;;;;;;;42.83;27.60;;;24.40;99.90;;;;;;5015319;28;20176;-64
2022/08/18 12:44:41;;;;;;;35.22;24.08;;;24.50;99.90;;;;;;4997604;28;20230;-64
2022/08/18 12:47:13;;;;;;;41.80;27.52;;;24.60;99.90;;;;;;4997285;28;20183;-64
2022/08/18 12:49:40;;;;;;;39.97;27.73;;;24.50;99.90;;;;;;5014937;28;20210;-64
2022/08/18 12:52:06;;;;;;;38.47;27.33;;;24.30;99.90;;;;;;5014831;28;20218;-64
2022/08/18 12:54:34;;;;;;;36.03;24.75;;;24.20;99.90;;;;;;5015283;28;20655;-64
2022/08/18 12:57:02;;;;;;;37.78;25.33;;;24.00;99.90;;;;;;5014812;28;20234;-64
2022/08/18 12:59:28;;;;;;;39.03;27.02;;;23.90;99.90;;;;;;5014883;28;20305;-64
2022/08/18 13:01:54;;;;;;;37.25;26.50;;;23.80;99.90;;;;;;5014449;28;20231;-65
2022/08/18 13:04:19;;;;;;;33.55;24.13;;;23.60;99.90;;;;;;5014898;28;20187;-64
2022/08/18 13:06:52;;;;;;;32.28;23.60;;;23.70;99.90;;;;;;5013606;28;20192;-66
2022/08/18 13:09:19;;;;;;;32.92;25.20;;;23.70;99.90;;;;;;5014982;28;20199;-67
2022/08/18 13:11:44;;;;;;;37.88;25.85;;;23.80;99.90;;;;;;5014704;28;20192;-67
2022/08/18 13:14:11;;;;;;;35.75;23.83;;;23.80;99.90;;;;;;5014994;28;20174;-67
2022/08/18 13:16:40;;;;;;;35.15;24.70;;;23.90;99.90;;;;;;5014543;28;20200;-67
2022/08/18 13:19:07;;;;;;;31.70;23.75;;;24.00;99.90;;;;;;5014647;28;20191;-66